sensor_id;sensor_type;location;lat;lon;timestamp;P1;durP1;ratioP1;P2;durP2;ratioP2
9771;SDS011;4925;52.588;13.370;2023-02-03T00:01:30;9.30;;;2.27;;
9771;SDS011;4925;52.588;13.370;2023-02-03T00:03:56;10.13;;;2.90;;
9771;SDS011;4925;52.588;13.370;2023-02-03T00:06:21;6.27;;;2.40;;
9771;SDS011;4925;52.588;13.370;2023-02-03T00:08:47;4.93;;;2.73;;
9771;SDS011;4925;52.588;13.370;2023-02-03T00:11:18;9.67;;;3.27;;
9771;SDS011;4925;52.588;13.370;2023-02-03T00:13:43;4.87;;;2.20;;
9771;SDS011;4925;52.588;13.370;2023-02-03T00:16:09;4.63;;;2.83;;
9771;SDS011;4925;52.588;13.370;2023-02-03T00:18:35;4.67;;;2.70;;
9771;SDS011;4925;52.588;13.370;2023-02-03T00:21:00;6.93;;;3.10;;
9771;SDS011;4925;52.588;13.370;2023-02-03T00:23:26;9.53;;;3.83;;
9771;SDS011;4925;52.588;13.370;2023-02-03T00:25:56;13.30;;;4.00;;
9771;SDS011;4925;52.588;13.370;2023-02-03T00:28:22;9.63;;;3.60;;
9771;SDS011;4925;52.588;13.370;2023-02-03T00:30:52;12.33;;;4.50;;
9771;SDS011;4925;52.588;13.370;2023-02-03T00:33:18;10.23;;;4.10;;
9771;SDS011;4925;52.588;13.370;2023-02-03T00:35:43;11.80;;;4.30;;
9771;SDS011;4925;52.588;13.370;2023-02-03T00:38:09;12.63;;;4.37;;
9771;SDS011;4925;52.588;13.370;2023-02-03T00:40:35;9.30;;;4.17;;
9771;SDS011;4925;52.588;13.370;2023-02-03T00:43:00;9.27;;;3.97;;
9771;SDS011;4925;52.588;13.370;2023-02-03T00:45:26;6.60;;;3.63;;
9771;SDS011;4925;52.588;13.370;2023-02-03T00:47:52;10.90;;;3.80;;
9771;SDS011;4925;52.588;13.370;2023-02-03T00:50:17;8.60;;;3.40;;
9771;SDS011;4925;52.588;13.370;2023-02-03T00:52:43;8.93;;;4.13;;
9771;SDS011;4925;52.588;13.370;2023-02-03T00:55:09;16.33;;;4.07;;
9771;SDS011;4925;52.588;13.370;2023-02-03T00:57:34;7.63;;;3.07;;
9771;SDS011;4925;52.588;13.370;2023-02-03T01:00:00;7.13;;;3.07;;
9771;SDS011;4925;52.588;13.370;2023-02-03T01:02:26;9.10;;;3.57;;
9771;SDS011;4925;52.588;13.370;2023-02-03T01:04:52;8.17;;;3.50;;
9771;SDS011;4925;52.588;13.370;2023-02-03T01:07:17;9.13;;;3.80;;
9771;SDS011;4925;52.588;13.370;2023-02-03T01:09:43;10.27;;;3.70;;
9771;SDS011;4925;52.588;13.370;2023-02-03T01:12:09;9.47;;;3.63;;
9771;SDS011;4925;52.588;13.370;2023-02-03T01:14:34;10.07;;;3.40;;
9771;SDS011;4925;52.588;13.370;2023-02-03T01:17:00;9.63;;;4.03;;
9771;SDS011;4925;52.588;13.370;2023-02-03T01:19:26;14.63;;;4.63;;
9771;SDS011;4925;52.588;13.370;2023-02-03T01:21:52;10.67;;;4.33;;
9771;SDS011;4925;52.588;13.370;2023-02-03T01:24:17;8.13;;;3.17;;
9771;SDS011;4925;52.588;13.370;2023-02-03T01:26:43;9.23;;;4.30;;
9771;SDS011;4925;52.588;13.370;2023-02-03T01:29:09;11.53;;;3.60;;
9771;SDS011;4925;52.588;13.370;2023-02-03T01:31:36;12.23;;;4.27;;
9771;SDS011;4925;52.588;13.370;2023-02-03T01:34:04;9.07;;;3.30;;
9771;SDS011;4925;52.588;13.370;2023-02-03T01:36:31;15.53;;;4.53;;
9771;SDS011;4925;52.588;13.370;2023-02-03T01:38:58;7.80;;;4.03;;
9771;SDS011;4925;52.588;13.370;2023-02-03T01:41:28;12.77;;;4.97;;
9771;SDS011;4925;52.588;13.370;2023-02-03T01:43:56;5.20;;;4.20;;
9771;SDS011;4925;52.588;13.370;2023-02-03T01:46:32;7.27;;;5.50;;
9771;SDS011;4925;52.588;13.370;2023-02-03T01:49:05;9.83;;;3.70;;
9771;SDS011;4925;52.588;13.370;2023-02-03T01:51:41;5.87;;;4.00;;
9771;SDS011;4925;52.588;13.370;2023-02-03T01:54:10;10.93;;;3.63;;
9771;SDS011;4925;52.588;13.370;2023-02-03T01:56:44;4.37;;;2.73;;
9771;SDS011;4925;52.588;13.370;2023-02-03T01:59:13;7.90;;;3.43;;
9771;SDS011;4925;52.588;13.370;2023-02-03T02:01:41;6.73;;;3.03;;
9771;SDS011;4925;52.588;13.370;2023-02-03T02:04:08;6.37;;;3.07;;
9771;SDS011;4925;52.588;13.370;2023-02-03T02:06:34;5.50;;;3.70;;
9771;SDS011;4925;52.588;13.370;2023-02-03T02:09:00;8.57;;;3.80;;
9771;SDS011;4925;52.588;13.370;2023-02-03T02:11:26;5.30;;;3.30;;
9771;SDS011;4925;52.588;13.370;2023-02-03T02:13:53;5.00;;;2.93;;
9771;SDS011;4925;52.588;13.370;2023-02-03T02:19:37;4.20;;;2.30;;
9771;SDS011;4925;52.588;13.370;2023-02-03T02:22:13;4.43;;;2.70;;
9771;SDS011;4925;52.588;13.370;2023-02-03T02:36:02;4.53;;;2.77;;
9771;SDS011;4925;52.588;13.370;2023-02-03T02:38:40;4.47;;;2.93;;
9771;SDS011;4925;52.588;13.370;2023-02-03T02:44:08;4.13;;;2.43;;
9771;SDS011;4925;52.588;13.370;2023-02-03T02:46:42;2.50;;;2.30;;
9771;SDS011;4925;52.588;13.370;2023-02-03T02:49:32;2.97;;;2.60;;
9771;SDS011;4925;52.588;13.370;2023-02-03T02:52:04;4.37;;;2.40;;
9771;SDS011;4925;52.588;13.370;2023-02-03T02:54:32;5.03;;;2.63;;
9771;SDS011;4925;52.588;13.370;2023-02-03T02:57:04;2.67;;;2.30;;
9771;SDS011;4925;52.588;13.370;2023-02-03T02:59:33;4.70;;;2.60;;
9771;SDS011;4925;52.588;13.370;2023-02-03T03:01:59;3.10;;;2.20;;
9771;SDS011;4925;52.588;13.370;2023-02-03T03:04:25;3.83;;;2.30;;
9771;SDS011;4925;52.588;13.370;2023-02-03T03:09:35;3.43;;;2.17;;
9771;SDS011;4925;52.588;13.370;2023-02-03T03:12:10;3.43;;;2.33;;
9771;SDS011;4925;52.588;13.370;2023-02-03T03:14:41;2.10;;;2.00;;
9771;SDS011;4925;52.588;13.370;2023-02-03T03:17:13;2.50;;;2.30;;
9771;SDS011;4925;52.588;13.370;2023-02-03T03:19:47;4.80;;;2.40;;
9771;SDS011;4925;52.588;13.370;2023-02-03T03:22:19;2.10;;;2.00;;
9771;SDS011;4925;52.588;13.370;2023-02-03T03:24:47;3.00;;;2.17;;
9771;SDS011;4925;52.588;13.370;2023-02-03T03:27:21;2.63;;;2.10;;
9771;SDS011;4925;52.588;13.370;2023-02-03T03:29:50;3.60;;;2.53;;
9771;SDS011;4925;52.588;13.370;2023-02-03T03:32:19;2.33;;;2.23;;
9771;SDS011;4925;52.588;13.370;2023-02-03T03:34:45;3.17;;;2.77;;
9771;SDS011;4925;52.588;13.370;2023-02-03T03:37:14;3.27;;;2.10;;
9771;SDS011;4925;52.588;13.370;2023-02-03T03:39:57;2.73;;;2.40;;
9771;SDS011;4925;52.588;13.370;2023-02-03T03:42:39;2.13;;;1.80;;
9771;SDS011;4925;52.588;13.370;2023-02-03T03:45:16;3.07;;;2.83;;
9771;SDS011;4925;52.588;13.370;2023-02-03T03:50:27;2.60;;;2.40;;
9771;SDS011;4925;52.588;13.370;2023-02-03T03:53:00;1.60;;;1.50;;
9771;SDS011;4925;52.588;13.370;2023-02-03T03:55:28;1.70;;;1.40;;
9771;SDS011;4925;52.588;13.370;2023-02-03T03:58:03;2.90;;;1.80;;
9771;SDS011;4925;52.588;13.370;2023-02-03T04:00:34;2.30;;;1.30;;
9771;SDS011;4925;52.588;13.370;2023-02-03T04:03:19;1.50;;;1.40;;
9771;SDS011;4925;52.588;13.370;2023-02-03T04:05:48;1.30;;;1.20;;
9771;SDS011;4925;52.588;13.370;2023-02-03T04:08:13;3.57;;;2.13;;
9771;SDS011;4925;52.588;13.370;2023-02-03T04:10:40;2.13;;;2.03;;
9771;SDS011;4925;52.588;13.370;2023-02-03T04:13:07;2.40;;;2.07;;
9771;SDS011;4925;52.588;13.370;2023-02-03T04:15:34;3.73;;;3.40;;
9771;SDS011;4925;52.588;13.370;2023-02-03T04:18:00;2.67;;;2.47;;
9771;SDS011;4925;52.588;13.370;2023-02-03T04:20:29;3.00;;;2.70;;
9771;SDS011;4925;52.588;13.370;2023-02-03T04:22:56;5.33;;;3.53;;
9771;SDS011;4925;52.588;13.370;2023-02-03T04:25:24;3.70;;;3.37;;
9771;SDS011;4925;52.588;13.370;2023-02-03T04:27:50;5.77;;;3.70;;
9771;SDS011;4925;52.588;13.370;2023-02-03T04:30:16;3.90;;;3.60;;
9771;SDS011;4925;52.588;13.370;2023-02-03T04:32:42;4.00;;;3.63;;
9771;SDS011;4925;52.588;13.370;2023-02-03T04:35:09;3.93;;;3.63;;
9771;SDS011;4925;52.588;13.370;2023-02-03T04:37:35;3.63;;;3.33;;
9771;SDS011;4925;52.588;13.370;2023-02-03T04:40:01;3.77;;;3.47;;
9771;SDS011;4925;52.588;13.370;2023-02-03T04:42:27;5.30;;;3.97;;
9771;SDS011;4925;52.588;13.370;2023-02-03T04:44:52;5.07;;;4.63;;
9771;SDS011;4925;52.588;13.370;2023-02-03T04:47:18;5.37;;;4.87;;
9771;SDS011;4925;52.588;13.370;2023-02-03T04:49:44;6.10;;;5.50;;
9771;SDS011;4925;52.588;13.370;2023-02-03T04:52:11;5.97;;;5.37;;
9771;SDS011;4925;52.588;13.370;2023-02-03T04:54:37;8.67;;;5.57;;
9771;SDS011;4925;52.588;13.370;2023-02-03T04:57:03;7.07;;;6.13;;
9771;SDS011;4925;52.588;13.370;2023-02-03T04:59:29;6.80;;;6.07;;
9771;SDS011;4925;52.588;13.370;2023-02-03T05:01:55;8.53;;;6.57;;
9771;SDS011;4925;52.588;13.370;2023-02-03T05:04:20;7.87;;;6.60;;
9771;SDS011;4925;52.588;13.370;2023-02-03T05:06:46;8.53;;;6.77;;
9771;SDS011;4925;52.588;13.370;2023-02-03T05:09:12;9.70;;;8.33;;
9771;SDS011;4925;52.588;13.370;2023-02-03T05:11:37;8.53;;;7.63;;
9771;SDS011;4925;52.588;13.370;2023-02-03T05:14:03;9.37;;;8.37;;
9771;SDS011;4925;52.588;13.370;2023-02-03T05:16:29;10.60;;;8.97;;
9771;SDS011;4925;52.588;13.370;2023-02-03T05:18:55;13.63;;;10.73;;
9771;SDS011;4925;52.588;13.370;2023-02-03T05:21:22;15.43;;;10.63;;
9771;SDS011;4925;52.588;13.370;2023-02-03T05:23:47;14.40;;;10.33;;
9771;SDS011;4925;52.588;13.370;2023-02-03T05:26:13;13.93;;;11.07;;
9771;SDS011;4925;52.588;13.370;2023-02-03T05:28:39;14.23;;;12.07;;
9771;SDS011;4925;52.588;13.370;2023-02-03T05:31:05;14.97;;;11.57;;
9771;SDS011;4925;52.588;13.370;2023-02-03T05:33:30;16.20;;;11.13;;
9771;SDS011;4925;52.588;13.370;2023-02-03T05:35:56;15.23;;;11.67;;
9771;SDS011;4925;52.588;13.370;2023-02-03T05:38:22;19.03;;;12.73;;
9771;SDS011;4925;52.588;13.370;2023-02-03T05:40:49;19.63;;;13.50;;
9771;SDS011;4925;52.588;13.370;2023-02-03T05:43:34;17.37;;;13.03;;
9771;SDS011;4925;52.588;13.370;2023-02-03T05:46:04;19.80;;;15.20;;
9771;SDS011;4925;52.588;13.370;2023-02-03T05:48:31;22.53;;;15.17;;
9771;SDS011;4925;52.588;13.370;2023-02-03T05:50:57;19.97;;;15.13;;
9771;SDS011;4925;52.588;13.370;2023-02-03T05:53:24;22.23;;;14.73;;
9771;SDS011;4925;52.588;13.370;2023-02-03T05:55:50;21.93;;;13.90;;
9771;SDS011;4925;52.588;13.370;2023-02-03T05:58:16;20.73;;;13.70;;
9771;SDS011;4925;52.588;13.370;2023-02-03T06:00:41;17.30;;;14.70;;
9771;SDS011;4925;52.588;13.370;2023-02-03T06:03:07;17.93;;;13.03;;
9771;SDS011;4925;52.588;13.370;2023-02-03T06:05:33;16.97;;;13.60;;
9771;SDS011;4925;52.588;13.370;2023-02-03T06:07:59;21.17;;;15.23;;
9771;SDS011;4925;52.588;13.370;2023-02-03T06:10:26;19.63;;;14.73;;
9771;SDS011;4925;52.588;13.370;2023-02-03T06:12:52;22.77;;;15.07;;
9771;SDS011;4925;52.588;13.370;2023-02-03T06:15:18;21.60;;;13.70;;
9771;SDS011;4925;52.588;13.370;2023-02-03T06:17:45;22.13;;;15.77;;
9771;SDS011;4925;52.588;13.370;2023-02-03T06:20:13;21.03;;;13.70;;
9771;SDS011;4925;52.588;13.370;2023-02-03T06:22:40;22.13;;;15.13;;
9771;SDS011;4925;52.588;13.370;2023-02-03T06:25:06;24.47;;;14.10;;
9771;SDS011;4925;52.588;13.370;2023-02-03T06:27:32;22.43;;;14.30;;
9771;SDS011;4925;52.588;13.370;2023-02-03T06:29:58;23.30;;;15.43;;
9771;SDS011;4925;52.588;13.370;2023-02-03T06:32:24;21.10;;;13.70;;
9771;SDS011;4925;52.588;13.370;2023-02-03T06:34:50;16.70;;;12.30;;
9771;SDS011;4925;52.588;13.370;2023-02-03T06:37:16;17.20;;;13.10;;
9771;SDS011;4925;52.588;13.370;2023-02-03T06:39:42;21.27;;;15.23;;
9771;SDS011;4925;52.588;13.370;2023-02-03T06:42:07;20.07;;;15.47;;
9771;SDS011;4925;52.588;13.370;2023-02-03T06:44:33;20.63;;;15.03;;
9771;SDS011;4925;52.588;13.370;2023-02-03T06:46:59;19.17;;;14.03;;
9771;SDS011;4925;52.588;13.370;2023-02-03T06:49:27;18.63;;;13.67;;
9771;SDS011;4925;52.588;13.370;2023-02-03T06:51:53;22.40;;;14.67;;
9771;SDS011;4925;52.588;13.370;2023-02-03T06:54:19;19.47;;;13.67;;
9771;SDS011;4925;52.588;13.370;2023-02-03T06:56:44;19.90;;;14.20;;
9771;SDS011;4925;52.588;13.370;2023-02-03T06:59:11;22.77;;;14.67;;
9771;SDS011;4925;52.588;13.370;2023-02-03T07:01:37;17.37;;;13.37;;
9771;SDS011;4925;52.588;13.370;2023-02-03T07:04:02;18.77;;;13.23;;
9771;SDS011;4925;52.588;13.370;2023-02-03T07:06:29;13.93;;;12.43;;
9771;SDS011;4925;52.588;13.370;2023-02-03T07:08:58;18.13;;;13.40;;
9771;SDS011;4925;52.588;13.370;2023-02-03T07:11:24;16.77;;;12.53;;
9771;SDS011;4925;52.588;13.370;2023-02-03T07:13:50;17.87;;;12.77;;
9771;SDS011;4925;52.588;13.370;2023-02-03T07:16:16;15.30;;;11.37;;
9771;SDS011;4925;52.588;13.370;2023-02-03T07:18:42;15.40;;;12.33;;
9771;SDS011;4925;52.588;13.370;2023-02-03T07:21:08;16.27;;;11.57;;
9771;SDS011;4925;52.588;13.370;2023-02-03T07:23:34;14.20;;;10.83;;
9771;SDS011;4925;52.588;13.370;2023-02-03T07:26:00;13.90;;;10.73;;
9771;SDS011;4925;52.588;13.370;2023-02-03T07:28:27;15.77;;;10.83;;
9771;SDS011;4925;52.588;13.370;2023-02-03T07:30:52;16.23;;;10.93;;
9771;SDS011;4925;52.588;13.370;2023-02-03T07:33:19;14.63;;;11.03;;
9771;SDS011;4925;52.588;13.370;2023-02-03T07:35:55;13.47;;;10.93;;
9771;SDS011;4925;52.588;13.370;2023-02-03T07:38:23;15.67;;;10.57;;
9771;SDS011;4925;52.588;13.370;2023-02-03T07:40:50;14.87;;;11.27;;
9771;SDS011;4925;52.588;13.370;2023-02-03T07:43:17;13.50;;;11.10;;
9771;SDS011;4925;52.588;13.370;2023-02-03T07:45:43;12.60;;;9.17;;
9771;SDS011;4925;52.588;13.370;2023-02-03T07:48:09;13.13;;;9.63;;
9771;SDS011;4925;52.588;13.370;2023-02-03T07:50:36;14.37;;;10.77;;
9771;SDS011;4925;52.588;13.370;2023-02-03T07:53:01;14.43;;;9.63;;
9771;SDS011;4925;52.588;13.370;2023-02-03T07:55:28;13.47;;;9.73;;
9771;SDS011;4925;52.588;13.370;2023-02-03T07:57:54;11.47;;;9.27;;
9771;SDS011;4925;52.588;13.370;2023-02-03T08:00:21;12.00;;;8.97;;
9771;SDS011;4925;52.588;13.370;2023-02-03T08:02:47;12.30;;;9.60;;
9771;SDS011;4925;52.588;13.370;2023-02-03T08:05:13;9.83;;;8.43;;
9771;SDS011;4925;52.588;13.370;2023-02-03T08:07:40;11.93;;;9.13;;
9771;SDS011;4925;52.588;13.370;2023-02-03T08:10:06;9.17;;;7.50;;
9771;SDS011;4925;52.588;13.370;2023-02-03T08:12:32;9.83;;;8.33;;
9771;SDS011;4925;52.588;13.370;2023-02-03T08:14:58;8.77;;;7.57;;
9771;SDS011;4925;52.588;13.370;2023-02-03T08:17:24;10.00;;;8.50;;
9771;SDS011;4925;52.588;13.370;2023-02-03T08:19:50;10.00;;;8.30;;
9771;SDS011;4925;52.588;13.370;2023-02-03T08:22:15;11.43;;;8.33;;
9771;SDS011;4925;52.588;13.370;2023-02-03T08:24:42;8.50;;;7.40;;
9771;SDS011;4925;52.588;13.370;2023-02-03T08:27:20;8.50;;;6.93;;
9771;SDS011;4925;52.588;13.370;2023-02-03T08:29:47;8.27;;;7.13;;
9771;SDS011;4925;52.588;13.370;2023-02-03T08:32:14;8.13;;;6.70;;
9771;SDS011;4925;52.588;13.370;2023-02-03T08:34:41;10.60;;;7.20;;
9771;SDS011;4925;52.588;13.370;2023-02-03T08:37:09;9.47;;;7.30;;
9771;SDS011;4925;52.588;13.370;2023-02-03T08:39:36;10.17;;;6.43;;
9771;SDS011;4925;52.588;13.370;2023-02-03T08:42:03;8.93;;;7.03;;
9771;SDS011;4925;52.588;13.370;2023-02-03T08:44:32;8.20;;;6.53;;
9771;SDS011;4925;52.588;13.370;2023-02-03T08:46:58;6.50;;;5.97;;
9771;SDS011;4925;52.588;13.370;2023-02-03T08:49:25;5.90;;;5.20;;
9771;SDS011;4925;52.588;13.370;2023-02-03T08:51:53;6.77;;;5.13;;
9771;SDS011;4925;52.588;13.370;2023-02-03T08:54:19;7.77;;;6.00;;
9771;SDS011;4925;52.588;13.370;2023-02-03T08:56:45;5.70;;;5.20;;
9771;SDS011;4925;52.588;13.370;2023-02-03T08:59:12;6.63;;;6.03;;
9771;SDS011;4925;52.588;13.370;2023-02-03T09:01:39;5.80;;;5.10;;
9771;SDS011;4925;52.588;13.370;2023-02-03T09:04:05;9.90;;;6.07;;
9771;SDS011;4925;52.588;13.370;2023-02-03T09:06:33;6.27;;;5.20;;
9771;SDS011;4925;52.588;13.370;2023-02-03T09:08:59;6.20;;;5.67;;
9771;SDS011;4925;52.588;13.370;2023-02-03T09:11:25;7.57;;;5.67;;
9771;SDS011;4925;52.588;13.370;2023-02-03T09:13:50;5.63;;;4.57;;
9771;SDS011;4925;52.588;13.370;2023-02-03T09:16:17;6.53;;;4.57;;
9771;SDS011;4925;52.588;13.370;2023-02-03T09:18:45;4.40;;;4.00;;
9771;SDS011;4925;52.588;13.370;2023-02-03T09:21:11;5.50;;;4.73;;
9771;SDS011;4925;52.588;13.370;2023-02-03T09:23:39;7.80;;;4.83;;
9771;SDS011;4925;52.588;13.370;2023-02-03T09:26:06;4.93;;;4.07;;
9771;SDS011;4925;52.588;13.370;2023-02-03T09:28:33;3.93;;;3.57;;
9771;SDS011;4925;52.588;13.370;2023-02-03T09:31:03;4.13;;;3.50;;
9771;SDS011;4925;52.588;13.370;2023-02-03T09:33:30;4.00;;;3.70;;
9771;SDS011;4925;52.588;13.370;2023-02-03T09:35:56;4.93;;;3.30;;
9771;SDS011;4925;52.588;13.370;2023-02-03T09:38:22;3.83;;;3.43;;
9771;SDS011;4925;52.588;13.370;2023-02-03T09:40:53;3.60;;;3.30;;
9771;SDS011;4925;52.588;13.370;2023-02-03T09:46:01;5.40;;;3.00;;
9771;SDS011;4925;52.588;13.370;2023-02-03T09:48:36;4.03;;;3.23;;
9771;SDS011;4925;52.588;13.370;2023-02-03T09:51:07;3.27;;;2.53;;
9771;SDS011;4925;52.588;13.370;2023-02-03T09:53:43;2.50;;;2.30;;
9771;SDS011;4925;52.588;13.370;2023-02-03T09:56:32;2.80;;;2.60;;
9771;SDS011;4925;52.588;13.370;2023-02-03T09:59:00;2.97;;;2.77;;
9771;SDS011;4925;52.588;13.370;2023-02-03T10:01:28;3.67;;;2.80;;
9771;SDS011;4925;52.588;13.370;2023-02-03T10:07:27;4.00;;;2.27;;
9771;SDS011;4925;52.588;13.370;2023-02-03T10:18:03;1.77;;;1.67;;
9771;SDS011;4925;52.588;13.370;2023-02-03T10:20:35;6.20;;;2.00;;
9771;SDS011;4925;52.588;13.370;2023-02-03T10:23:19;1.97;;;1.47;;
9771;SDS011;4925;52.588;13.370;2023-02-03T10:25:58;3.03;;;1.50;;
9771;SDS011;4925;52.588;13.370;2023-02-03T10:28:29;2.03;;;1.80;;
9771;SDS011;4925;52.588;13.370;2023-02-03T10:31:00;2.23;;;1.80;;
9771;SDS011;4925;52.588;13.370;2023-02-03T10:33:29;3.43;;;1.50;;
9771;SDS011;4925;52.588;13.370;2023-02-03T10:41:26;2.37;;;1.03;;
9771;SDS011;4925;52.588;13.370;2023-02-03T10:43:53;5.73;;;0.93;;
9771;SDS011;4925;52.588;13.370;2023-02-03T10:48:55;8.57;;;1.50;;
9771;SDS011;4925;52.588;13.370;2023-02-03T10:51:22;2.87;;;1.10;;
9771;SDS011;4925;52.588;13.370;2023-02-03T10:53:51;6.30;;;1.33;;
9771;SDS011;4925;52.588;13.370;2023-02-03T10:56:22;2.27;;;1.00;;
9771;SDS011;4925;52.588;13.370;2023-02-03T10:59:02;4.73;;;1.33;;
9771;SDS011;4925;52.588;13.370;2023-02-03T11:01:42;4.43;;;1.40;;
9771;SDS011;4925;52.588;13.370;2023-02-03T11:04:22;6.73;;;1.93;;
9771;SDS011;4925;52.588;13.370;2023-02-03T11:07:02;12.33;;;1.80;;
9771;SDS011;4925;52.588;13.370;2023-02-03T11:09:41;6.73;;;1.73;;
9771;SDS011;4925;52.588;13.370;2023-02-03T11:12:14;6.43;;;1.70;;
9771;SDS011;4925;52.588;13.370;2023-02-03T11:14:42;10.63;;;1.73;;
9771;SDS011;4925;52.588;13.370;2023-02-03T11:17:20;10.03;;;1.60;;
9771;SDS011;4925;52.588;13.370;2023-02-03T11:19:51;8.20;;;1.43;;
9771;SDS011;4925;52.588;13.370;2023-02-03T11:22:25;11.60;;;1.93;;
9771;SDS011;4925;52.588;13.370;2023-02-03T11:24:51;7.70;;;1.70;;
9771;SDS011;4925;52.588;13.370;2023-02-03T11:27:18;12.17;;;3.20;;
9771;SDS011;4925;52.588;13.370;2023-02-03T11:29:47;10.57;;;2.50;;
9771;SDS011;4925;52.588;13.370;2023-02-03T11:32:19;13.57;;;2.93;;
9771;SDS011;4925;52.588;13.370;2023-02-03T11:35:34;13.23;;;2.83;;
9771;SDS011;4925;52.588;13.370;2023-02-03T11:37:41;7.00;;;2.10;;
9771;SDS011;4925;52.588;13.370;2023-02-03T11:42:36;11.67;;;2.37;;
9771;SDS011;4925;52.588;13.370;2023-02-03T11:45:23;9.07;;;2.80;;
9771;SDS011;4925;52.588;13.370;2023-02-03T11:50:59;13.80;;;3.10;;
9771;SDS011;4925;52.588;13.370;2023-02-03T12:14:42;16.67;;;3.50;;
9771;SDS011;4925;52.588;13.370;2023-02-03T12:17:37;21.27;;;4.40;;
9771;SDS011;4925;52.588;13.370;2023-02-03T12:23:22;20.73;;;3.60;;
9771;SDS011;4925;52.588;13.370;2023-02-03T12:28:49;19.43;;;4.50;;
9771;SDS011;4925;52.588;13.370;2023-02-03T12:34:48;17.83;;;3.50;;
9771;SDS011;4925;52.588;13.370;2023-02-03T12:37:25;20.30;;;3.97;;
9771;SDS011;4925;52.588;13.370;2023-02-03T12:40:13;14.87;;;3.30;;
9771;SDS011;4925;52.588;13.370;2023-02-03T12:42:59;19.87;;;4.33;;
9771;SDS011;4925;52.588;13.370;2023-02-03T12:45:33;20.47;;;4.80;;
9771;SDS011;4925;52.588;13.370;2023-02-03T12:48:11;24.57;;;4.30;;
9771;SDS011;4925;52.588;13.370;2023-02-03T12:50:45;7.23;;;1.93;;
9771;SDS011;4925;52.588;13.370;2023-02-03T12:55:43;7.60;;;1.70;;
9771;SDS011;4925;52.588;13.370;2023-02-03T12:58:34;5.83;;;1.40;;
9771;SDS011;4925;52.588;13.370;2023-02-03T13:03:38;8.30;;;1.53;;
9771;SDS011;4925;52.588;13.370;2023-02-03T13:09:02;3.10;;;1.30;;
9771;SDS011;4925;52.588;13.370;2023-02-03T13:12:02;5.67;;;1.80;;
9771;SDS011;4925;52.588;13.370;2023-02-03T13:14:35;8.50;;;2.40;;
9771;SDS011;4925;52.588;13.370;2023-02-03T13:19:39;10.83;;;2.10;;
9771;SDS011;4925;52.588;13.370;2023-02-03T13:22:11;6.90;;;2.10;;
9771;SDS011;4925;52.588;13.370;2023-02-03T13:24:38;13.87;;;2.60;;
9771;SDS011;4925;52.588;13.370;2023-02-03T13:36:04;12.90;;;3.23;;
9771;SDS011;4925;52.588;13.370;2023-02-03T13:43:43;11.40;;;2.80;;
9771;SDS011;4925;52.588;13.370;2023-02-03T13:46:19;14.37;;;2.90;;
9771;SDS011;4925;52.588;13.370;2023-02-03T13:48:45;16.07;;;3.57;;
9771;SDS011;4925;52.588;13.370;2023-02-03T13:51:15;13.60;;;3.17;;
9771;SDS011;4925;52.588;13.370;2023-02-03T13:53:44;15.13;;;3.20;;
9771;SDS011;4925;52.588;13.370;2023-02-03T13:56:19;19.07;;;3.90;;
9771;SDS011;4925;52.588;13.370;2023-02-03T13:59:19;18.60;;;3.87;;
9771;SDS011;4925;52.588;13.370;2023-02-03T14:01:39;15.10;;;3.30;;
9771;SDS011;4925;52.588;13.370;2023-02-03T14:04:07;15.67;;;3.57;;
9771;SDS011;4925;52.588;13.370;2023-02-03T14:07:03;14.17;;;3.10;;
9771;SDS011;4925;52.588;13.370;2023-02-03T14:15:19;21.20;;;4.07;;
9771;SDS011;4925;52.588;13.370;2023-02-03T14:25:40;23.27;;;4.13;;
9771;SDS011;4925;52.588;13.370;2023-02-03T14:28:22;18.97;;;4.67;;
9771;SDS011;4925;52.588;13.370;2023-02-03T14:31:09;18.23;;;3.47;;
9771;SDS011;4925;52.588;13.370;2023-02-03T14:33:44;19.40;;;3.80;;
9771;SDS011;4925;52.588;13.370;2023-02-03T14:36:32;15.93;;;3.93;;
9771;SDS011;4925;52.588;13.370;2023-02-03T14:53:00;22.07;;;4.73;;
9771;SDS011;4925;52.588;13.370;2023-02-03T14:58:25;24.43;;;4.50;;
9771;SDS011;4925;52.588;13.370;2023-02-03T15:00:55;10.43;;;3.10;;
9771;SDS011;4925;52.588;13.370;2023-02-03T15:03:22;20.43;;;4.07;;
9771;SDS011;4925;52.588;13.370;2023-02-03T15:08:36;20.50;;;4.53;;
9771;SDS011;4925;52.588;13.370;2023-02-03T15:11:18;19.33;;;4.37;;
9771;SDS011;4925;52.588;13.370;2023-02-03T15:13:45;13.17;;;3.73;;
9771;SDS011;4925;52.588;13.370;2023-02-03T15:16:13;24.83;;;4.50;;
9771;SDS011;4925;52.588;13.370;2023-02-03T15:18:43;24.73;;;5.27;;
9771;SDS011;4925;52.588;13.370;2023-02-03T15:21:18;16.17;;;4.23;;
9771;SDS011;4925;52.588;13.370;2023-02-03T15:23:45;21.13;;;4.93;;
9771;SDS011;4925;52.588;13.370;2023-02-03T15:26:20;26.53;;;4.80;;
9771;SDS011;4925;52.588;13.370;2023-02-03T15:28:58;18.57;;;5.03;;
9771;SDS011;4925;52.588;13.370;2023-02-03T15:31:33;20.10;;;4.43;;
9771;SDS011;4925;52.588;13.370;2023-02-03T15:34:21;19.77;;;4.33;;
9771;SDS011;4925;52.588;13.370;2023-02-03T15:36:59;19.30;;;3.53;;
9771;SDS011;4925;52.588;13.370;2023-02-03T15:42:30;20.43;;;4.23;;
9771;SDS011;4925;52.588;13.370;2023-02-03T15:45:00;13.67;;;4.20;;
9771;SDS011;4925;52.588;13.370;2023-02-03T15:50:24;16.77;;;3.23;;
9771;SDS011;4925;52.588;13.370;2023-02-03T15:52:56;16.50;;;3.40;;
9771;SDS011;4925;52.588;13.370;2023-02-03T15:55:32;17.43;;;3.20;;
9771;SDS011;4925;52.588;13.370;2023-02-03T15:58:02;14.13;;;3.57;;
9771;SDS011;4925;52.588;13.370;2023-02-03T16:00:34;16.13;;;3.57;;
9771;SDS011;4925;52.588;13.370;2023-02-03T16:03:03;20.63;;;4.30;;
9771;SDS011;4925;52.588;13.370;2023-02-03T16:05:37;15.50;;;3.27;;
9771;SDS011;4925;52.588;13.370;2023-02-03T16:11:19;14.90;;;3.67;;
9771;SDS011;4925;52.588;13.370;2023-02-03T16:13:47;18.10;;;3.90;;
9771;SDS011;4925;52.588;13.370;2023-02-03T16:16:14;21.20;;;3.87;;
9771;SDS011;4925;52.588;13.370;2023-02-03T16:18:49;16.10;;;4.10;;
9771;SDS011;4925;52.588;13.370;2023-02-03T16:23:55;22.03;;;3.80;;
9771;SDS011;4925;52.588;13.370;2023-02-03T16:26:22;17.33;;;3.20;;
9771;SDS011;4925;52.588;13.370;2023-02-03T16:32:00;14.90;;;3.53;;
9771;SDS011;4925;52.588;13.370;2023-02-03T16:34:44;14.73;;;3.93;;
9771;SDS011;4925;52.588;13.370;2023-02-03T16:37:41;19.90;;;4.83;;
9771;SDS011;4925;52.588;13.370;2023-02-03T16:40:26;12.03;;;3.27;;
9771;SDS011;4925;52.588;13.370;2023-02-03T16:43:11;22.50;;;4.90;;
9771;SDS011;4925;52.588;13.370;2023-02-03T16:45:58;18.60;;;3.63;;
9771;SDS011;4925;52.588;13.370;2023-02-03T16:48:43;19.60;;;3.67;;
9771;SDS011;4925;52.588;13.370;2023-02-03T16:51:34;18.63;;;3.60;;
9771;SDS011;4925;52.588;13.370;2023-02-03T16:54:06;20.03;;;3.90;;
9771;SDS011;4925;52.588;13.370;2023-02-03T16:56:35;22.13;;;5.20;;
9771;SDS011;4925;52.588;13.370;2023-02-03T16:59:01;21.33;;;4.07;;
9771;SDS011;4925;52.588;13.370;2023-02-03T17:01:26;21.93;;;4.07;;
9771;SDS011;4925;52.588;13.370;2023-02-03T17:03:52;15.67;;;3.57;;
9771;SDS011;4925;52.588;13.370;2023-02-03T17:06:18;24.40;;;3.93;;
9771;SDS011;4925;52.588;13.370;2023-02-03T17:08:44;18.53;;;4.60;;
9771;SDS011;4925;52.588;13.370;2023-02-03T17:11:11;20.30;;;4.47;;
9771;SDS011;4925;52.588;13.370;2023-02-03T17:13:39;22.10;;;4.30;;
9771;SDS011;4925;52.588;13.370;2023-02-03T17:16:07;22.07;;;4.80;;
9771;SDS011;4925;52.588;13.370;2023-02-03T17:18:38;18.23;;;4.03;;
9771;SDS011;4925;52.588;13.370;2023-02-03T17:21:04;16.17;;;3.70;;
9771;SDS011;4925;52.588;13.370;2023-02-03T17:23:32;16.43;;;4.10;;
9771;SDS011;4925;52.588;13.370;2023-02-03T17:25:58;21.67;;;4.70;;
9771;SDS011;4925;52.588;13.370;2023-02-03T17:28:24;20.47;;;3.97;;
9771;SDS011;4925;52.588;13.370;2023-02-03T17:31:00;11.03;;;3.23;;
9771;SDS011;4925;52.588;13.370;2023-02-03T17:33:28;26.77;;;5.70;;
9771;SDS011;4925;52.588;13.370;2023-02-03T17:36:05;13.03;;;4.13;;
9771;SDS011;4925;52.588;13.370;2023-02-03T17:38:36;24.27;;;4.43;;
9771;SDS011;4925;52.588;13.370;2023-02-03T17:41:08;31.27;;;4.50;;
9771;SDS011;4925;52.588;13.370;2023-02-03T17:43:39;20.03;;;4.40;;